Time;durP1;ratioP1;P1;durP2;ratioP2;P2;SDS_P1;SDS_P2;PMS_P1;PMS_P2;Temp;Humidity;BMP_temperature;BMP_pressure;BME280_temperature;BME280_humidity;BME280_pressure;Samples;Min_cycle;Max_cycle;Signal;HPM_P1;HPM_P2
2023/04/04 00:00:07;;;;;;;5.35;2.58;;;-0.80;99.90;;;;;;6187430;23;20725;-84
2023/04/04 00:02:33;;;;;;;4.93;2.40;;;-0.50;99.90;;;;;;6187669;23;20361;-83
2023/04/04 00:05:01;;;;;;;6.38;2.80;;;-0.30;99.90;;;;;;6186811;23;20568;-83
2023/04/04 00:07:27;;;;;;;5.20;2.20;;;-1.20;99.90;;;;;;6187854;23;20362;-84
2023/04/04 00:09:52;;;;;;;6.57;2.50;;;-1.00;99.90;;;;;;6187999;23;20485;-84
2023/04/04 00:12:18;;;;;;;6.65;2.75;;;-0.40;99.90;;;;;;6214434;23;20342;-83
2023/04/04 00:14:44;;;;;;;6.30;2.70;;;-1.00;99.90;;;;;;6214960;23;20350;-84
2023/04/04 00:17:09;;;;;;;7.50;2.55;;;-0.80;99.90;;;;;;6189615;23;20421;-83
2023/04/04 00:19:35;;;;;;;5.60;2.58;;;-1.60;99.90;;;;;;6191429;23;20392;-83
2023/04/04 00:22:01;;;;;;;5.20;2.67;;;-1.50;99.90;;;;;;6215578;23;20543;-84
2023/04/04 00:24:27;;;;;;;5.68;2.97;;;-1.40;99.90;;;;;;6218614;23;20342;-83
2023/04/04 00:26:52;;;;;;;4.63;2.47;;;-0.80;99.90;;;;;;6225211;23;20382;-83
2023/04/04 00:29:18;;;;;;;8.68;3.00;;;-1.00;99.90;;;;;;6190095;23;20884;-84
2023/04/04 00:31:44;;;;;;;6.87;2.87;;;-1.40;99.90;;;;;;6200737;23;20354;-81
2023/04/04 00:34:09;;;;;;;6.95;2.70;;;-1.30;99.90;;;;;;6211398;23;20353;-81
2023/04/04 00:36:35;;;;;;;6.53;3.03;;;-1.30;99.90;;;;;;6211457;23;20430;-82
2023/04/04 00:39:01;;;;;;;4.87;2.67;;;-1.50;99.90;;;;;;6210904;23;20350;-82
2023/04/04 00:41:26;;;;;;;6.23;3.30;;;-1.70;99.90;;;;;;6200761;23;20397;-83
2023/04/04 00:43:54;;;;;;;5.90;2.90;;;-0.90;99.90;;;;;;6215243;23;20346;-83
2023/04/04 00:46:20;;;;;;;5.70;2.72;;;-1.60;99.90;;;;;;6188561;23;20878;-83
2023/04/04 00:48:47;;;;;;;6.05;3.05;;;-1.40;99.90;;;;;;6188314;23;20396;-84
2023/04/04 00:51:12;;;;;;;8.02;3.17;;;-1.00;99.90;;;;;;6215028;23;20348;-83
2023/04/04 00:53:38;;;;;;;5.63;2.93;;;-1.20;99.90;;;;;;6188558;23;20378;-84
2023/04/04 00:56:05;;;;;;;8.37;3.17;;;-1.70;99.90;;;;;;6188619;23;20544;-84
2023/04/04 00:58:31;;;;;;;6.15;3.10;;;-1.50;99.90;;;;;;6215390;23;20558;-83
2023/04/04 01:00:59;;;;;;;6.25;3.13;;;-1.30;99.90;;;;;;6188336;23;20916;-83
2023/04/04 01:03:25;;;;;;;8.23;3.00;;;-1.90;99.90;;;;;;6188614;23;20346;-84
2023/04/04 01:05:50;;;;;;;7.43;3.30;;;-1.50;99.90;;;;;;6214844;23;20346;-83
2023/04/04 01:08:22;;;;;;;7.78;3.10;;;-1.90;99.90;;;;;;6215515;23;20350;-83
2023/04/04 01:10:48;;;;;;;4.63;3.10;;;-1.90;99.90;;;;;;6190515;23;20353;-83
2023/04/04 01:13:15;;;;;;;6.13;3.08;;;-2.00;99.90;;;;;;6190186;23;20350;-83
2023/04/04 01:15:41;;;;;;;5.07;2.85;;;-1.70;99.90;;;;;;6190005;23;20719;-84
2023/04/04 01:18:10;;;;;;;8.47;3.33;;;-1.90;99.90;;;;;;6190080;23;20441;-83
2023/04/04 01:20:42;;;;;;;6.55;3.25;;;-1.70;99.90;;;;;;6190318;23;20374;-83
2023/04/04 01:23:09;;;;;;;6.50;3.28;;;-2.50;99.90;;;;;;6191010;23;20833;-83
2023/04/04 01:25:35;;;;;;;7.57;3.20;;;-2.00;99.90;;;;;;6191095;23;20872;-83
2023/04/04 01:28:01;;;;;;;6.03;3.03;;;-1.60;99.90;;;;;;6218130;23;20347;-83
2023/04/04 01:30:30;;;;;;;5.97;3.10;;;-1.60;99.90;;;;;;6191055;23;20369;-83
2023/04/04 01:33:03;;;;;;;8.23;3.75;;;-2.20;99.90;;;;;;6218314;23;20368;-83
2023/04/04 01:36:07;;;;;;;8.02;4.40;;;-1.70;99.90;;;;;;6218959;23;20342;-84
2023/04/04 01:38:55;;;;;;;6.63;3.42;;;-2.20;99.90;;;;;;6218661;23;20338;-83
2023/04/04 01:41:23;;;;;;;5.85;3.55;;;-2.20;99.90;;;;;;6191724;23;20378;-83
2023/04/04 01:43:50;;;;;;;6.50;3.30;;;-2.30;99.90;;;;;;6192664;23;20346;-83
2023/04/04 01:46:16;;;;;;;8.57;3.78;;;-2.00;99.90;;;;;;6191949;23;20844;-83
2023/04/04 01:48:42;;;;;;;6.25;3.50;;;-2.40;99.90;;;;;;6192508;23;20348;-83
2023/04/04 01:51:10;;;;;;;6.67;3.70;;;-2.30;99.90;;;;;;6191993;23;20433;-83
2023/04/04 01:53:36;;;;;;;6.90;3.25;;;-1.70;99.90;;;;;;6192557;23;20809;-83
2023/04/04 01:56:02;;;;;;;7.53;3.75;;;-1.30;99.90;;;;;;6192452;23;20350;-83
2023/04/04 01:58:28;;;;;;;5.43;2.97;;;-1.50;99.90;;;;;;6192202;23;20350;-83
2023/04/04 02:00:55;;;;;;;5.77;3.30;;;-1.90;99.90;;;;;;6193524;23;20397;-83
2023/04/04 02:03:21;;;;;;;5.50;3.33;;;-2.70;99.90;;;;;;6219107;23;20441;-83
2023/04/04 02:05:47;;;;;;;6.57;3.13;;;-2.90;99.90;;;;;;6193299;23;20443;-83
2023/04/04 02:08:14;;;;;;;5.35;3.17;;;-2.30;99.90;;;;;;6192754;23;20421;-83
2023/04/04 02:10:40;;;;;;;5.70;3.30;;;-2.00;99.90;;;;;;6193336;23;20793;-83
2023/04/04 02:13:06;;;;;;;6.70;3.30;;;-2.00;99.90;;;;;;6193055;23;20357;-83
2023/04/04 02:15:35;;;;;;;6.13;2.80;;;-2.60;99.90;;;;;;6192137;23;20813;-83
2023/04/04 02:18:01;;;;;;;3.22;2.42;;;-2.90;99.90;;;;;;6194575;23;20659;-83
2023/04/04 02:20:27;;;;;;;7.15;3.10;;;-2.50;99.90;;;;;;6193495;23;20362;-83
2023/04/04 02:22:54;;;;;;;5.10;2.70;;;-2.60;99.90;;;;;;6220541;23;20338;-84
2023/04/04 02:25:21;;;;;;;5.55;2.78;;;-2.40;99.90;;;;;;6191735;23;20350;-84
2023/04/04 02:27:50;;;;;;;5.47;2.80;;;-2.40;99.90;;;;;;6191925;23;20442;-83
2023/04/04 02:30:16;;;;;;;8.38;3.08;;;-2.40;99.90;;;;;;6191913;23;20350;-84
2023/04/04 02:32:44;;;;;;;5.80;2.95;;;-2.90;99.90;;;;;;6192281;23;20361;-83
2023/04/04 02:35:10;;;;;;;7.28;3.45;;;-2.90;99.90;;;;;;6192219;23;20357;-83
2023/04/04 02:37:36;;;;;;;3.97;2.73;;;-2.70;99.90;;;;;;6192201;23;20817;-84
2023/04/04 02:40:04;;;;;;;4.40;2.80;;;-3.20;99.90;;;;;;6218786;23;20655;-83
2023/04/04 02:42:30;;;;;;;3.95;3.05;;;-3.20;99.90;;;;;;6219684;23;20339;-83
2023/04/04 02:44:56;;;;;;;5.70;3.00;;;-2.50;99.90;;;;;;6193838;23;20350;-83
2023/04/04 02:47:22;;;;;;;6.57;3.57;;;-2.60;99.90;;;;;;6220463;23;20349;-82
2023/04/04 02:49:50;;;;;;;6.60;3.47;;;-2.70;99.90;;;;;;6190395;23;20350;-83
2023/04/04 02:52:16;;;;;;;5.68;3.63;;;-2.80;99.90;;;;;;6189606;23;20352;-83
2023/04/04 02:54:44;;;;;;;5.25;3.13;;;-2.70;99.90;;;;;;6190518;23;20374;-83
2023/04/04 02:57:10;;;;;;;5.40;3.60;;;-3.30;99.90;;;;;;6190301;23;20436;-83
2023/04/04 02:59:41;;;;;;;5.77;3.50;;;-2.50;99.90;;;;;;6190065;23;20366;-83
2023/04/04 03:02:11;;;;;;;7.40;3.50;;;-3.00;99.90;;;;;;6216345;23;20351;-82
2023/04/04 03:04:39;;;;;;;7.35;3.88;;;-2.80;99.90;;;;;;6216586;23;20337;-83
2023/04/04 03:07:07;;;;;;;7.07;3.33;;;-2.80;99.90;;;;;;6189983;23;20350;-83
2023/04/04 03:09:38;;;;;;;5.68;3.28;;;-2.90;99.90;;;;;;6189452;23;20374;-83
2023/04/04 03:12:09;;;;;;;7.60;3.67;;;-2.40;99.90;;;;;;6189810;23;20979;-83
2023/04/04 03:14:35;;;;;;;7.47;2.92;;;-2.90;99.90;;;;;;6190141;23;20350;-83
2023/04/04 03:17:04;;;;;;;7.95;3.42;;;-2.60;99.90;;;;;;6189890;23;20350;-83
2023/04/04 03:19:32;;;;;;;7.03;3.42;;;-2.90;99.90;;;;;;6215866;23;20342;-83
2023/04/04 03:21:58;;;;;;;6.55;3.38;;;-2.70;99.90;;;;;;6190149;23;20359;-83
2023/04/04 03:24:24;;;;;;;6.00;3.42;;;-3.20;99.90;;;;;;6189969;23;20395;-83
2023/04/04 03:26:55;;;;;;;5.05;3.15;;;-3.30;99.90;;;;;;6189754;23;20357;-82
2023/04/04 03:29:23;;;;;;;8.70;3.20;;;-3.00;99.90;;;;;;6216042;23;20691;-83
2023/04/04 03:31:52;;;;;;;6.50;3.28;;;-3.20;99.90;;;;;;6216545;23;20729;-83
2023/04/04 03:34:26;;;;;;;5.73;3.30;;;-3.40;99.90;;;;;;6189282;23;20909;-83
2023/04/04 03:37:12;;;;;;;7.43;3.50;;;-3.00;99.90;;;;;;6216233;23;20343;-83
2023/04/04 03:39:40;;;;;;;7.80;3.47;;;-3.20;99.90;;;;;;6215115;23;20374;-82
2023/04/04 03:42:08;;;;;;;6.73;3.73;;;-3.40;99.90;;;;;;6215477;23;20424;-83
2023/04/04 03:44:38;;;;;;;6.22;3.45;;;-3.10;99.90;;;;;;6188885;23;20411;-83
2023/04/04 03:47:06;;;;;;;6.75;3.65;;;-3.60;99.90;;;;;;6188527;23;20354;-83
2023/04/04 03:49:36;;;;;;;7.63;3.50;;;-2.90;99.90;;;;;;6187925;23;20353;-82
2023/04/04 03:52:08;;;;;;;8.20;3.78;;;-3.70;99.90;;;;;;6188631;23;20358;-83
2023/04/04 03:54:34;;;;;;;7.20;3.80;;;-3.30;99.90;;;;;;6188543;23;20868;-82
2023/04/04 03:57:10;;;;;;;4.85;3.45;;;-3.80;99.90;;;;;;6188390;23;20378;-83
2023/04/04 03:59:41;;;;;;;8.07;4.00;;;-4.10;99.90;;;;;;6188028;23;20369;-83
2023/04/04 04:02:07;;;;;;;6.47;4.00;;;-3.80;99.90;;;;;;6188809;23;20507;-82
2023/04/04 04:04:33;;;;;;;5.40;3.42;;;-3.70;99.90;;;;;;6215136;23;20377;-82
2023/04/04 04:07:01;;;;;;;8.45;3.58;;;-3.30;99.90;;;;;;6187961;23;20342;-82
2023/04/04 04:09:27;;;;;;;6.63;3.30;;;-3.70;99.90;;;;;;6188614;23;20779;-82
2023/04/04 04:11:53;;;;;;;6.18;3.20;;;-3.10;99.90;;;;;;6215900;23;20338;-83
2023/04/04 04:14:19;;;;;;;6.65;3.08;;;-3.50;99.90;;;;;;6188376;23;20717;-82
2023/04/04 04:16:48;;;;;;;6.65;3.55;;;-4.00;99.90;;;;;;6188761;23;20373;-83
2023/04/04 04:19:13;;;;;;;5.97;3.60;;;-3.20;99.90;;;;;;6215060;23;20384;-83
2023/04/04 04:21:42;;;;;;;6.97;3.60;;;-2.90;99.90;;;;;;6188345;23;20342;-83
2023/04/04 04:24:08;;;;;;;6.82;3.30;;;-3.40;99.90;;;;;;6188023;23;20350;-83
2023/04/04 04:26:34;;;;;;;7.35;3.50;;;-3.70;99.90;;;;;;6188327;23;20669;-82
2023/04/04 04:29:00;;;;;;;8.45;3.42;;;-4.10;99.90;;;;;;6187646;23;20883;-84
2023/04/04 04:31:29;;;;;;;6.25;3.50;;;-3.90;99.90;;;;;;6214056;23;20672;-83
2023/04/04 04:33:58;;;;;;;7.93;3.88;;;-3.10;99.90;;;;;;6187905;23;20407;-82
2023/04/04 04:36:24;;;;;;;6.32;3.58;;;-3.60;99.90;;;;;;6187652;23;20436;-83
2023/04/04 04:38:52;;;;;;;6.80;3.70;;;-3.90;99.90;;;;;;6187182;23;20358;-83
2023/04/04 04:41:20;;;;;;;5.75;3.33;;;-4.00;99.90;;;;;;6186587;23;20380;-82
2023/04/04 04:43:49;;;;;;;4.72;3.20;;;-4.00;99.90;;;;;;6188673;23;20350;-83
2023/04/04 04:46:14;;;;;;;7.10;3.47;;;-3.60;99.90;;;;;;6189569;23;20373;-82
2023/04/04 04:48:45;;;;;;;7.13;3.80;;;-3.90;99.90;;;;;;6216869;23;20661;-82
2023/04/04 04:51:13;;;;;;;6.28;3.38;;;-4.00;99.90;;;;;;6189658;23;20346;-82
2023/04/04 04:53:40;;;;;;;6.25;3.85;;;-3.50;99.90;;;;;;6188637;23;20350;-83
2023/04/04 04:56:10;;;;;;;5.93;3.10;;;-3.80;99.90;;;;;;6189424;23;20342;-83
2023/04/04 04:58:36;;;;;;;8.52;3.60;;;-3.40;99.90;;;;;;6190081;23;20350;-83
2023/04/04 05:01:02;;;;;;;5.23;3.13;;;-2.90;99.90;;;;;;6190123;23;20377;-83
2023/04/04 05:03:27;;;;;;;6.63;3.30;;;-3.50;99.90;;;;;;6216683;23;20341;-83
2023/04/04 05:09:05;;;;;;;5.18;3.38;;;-3.60;99.90;;;;;;6216201;23;20813;-83
2023/04/04 05:11:34;;;;;;;8.10;3.65;;;-3.70;99.90;;;;;;6189862;23;20821;-83
2023/04/04 05:14:00;;;;;;;7.03;4.00;;;-3.10;99.90;;;;;;6190708;23;20350;-83
2023/04/04 05:16:39;;;;;;;7.65;3.72;;;-3.40;99.90;;;;;;6190895;23;20368;-83
2023/04/04 05:19:33;;;;;;;5.10;3.40;;;-3.20;99.90;;;;;;6192813;23;20342;-84
2023/04/04 05:22:09;;;;;;;5.85;3.25;;;-2.50;99.90;;;;;;6130014;23;20370;-83
2023/04/04 05:24:44;;;;;;;7.63;4.60;;;-2.80;99.90;;;;;;6228644;23;20342;-82
2023/04/04 05:27:20;;;;;;;5.95;4.07;;;-3.30;99.90;;;;;;6202320;23;20373;-83
2023/04/04 05:29:49;;;;;;;9.48;5.13;;;-2.70;99.90;;;;;;6200899;23;20397;-84
2023/04/04 05:32:31;;;;;;;7.88;4.30;;;;;;;;;;6201230;23;20350;-83
2023/04/04 05:35:00;;;;;;;8.52;4.43;;;;;;;;;;6202210;23;20421;-83
2023/04/04 05:37:40;;;;;;;7.83;4.03;;;;;;;;;;6196012;23;20348;-83
2023/04/04 05:40:51;;;;;;;;;;;;;;;;;;;;;
2023/04/04 05:46:37;;;;;;;7.00;4.28;;;;;;;;;;6198656;23;20342;-84
2023/04/04 05:49:07;;;;;;;6.30;4.45;;;;;;;;;;6202288;23;20346;-83
2023/04/04 05:51:34;;;;;;;9.60;4.13;;;0.40;99.90;;;;;;6191383;23;20796;-83
2023/04/04 05:54:18;;;;;;;11.80;4.50;;;0.20;99.90;;;;;;6218305;23;20346;-83
2023/04/04 05:56:53;;;;;;;6.00;4.22;;;;;;;;;;6193778;23;20357;-83
2023/04/04 05:59:24;;;;;;;8.07;4.10;;;;;;;;;;6192971;23;20804;-82
2023/04/04 06:01:53;;;;;;;9.75;4.72;;;;;;;;;;6218455;23;20881;-83
2023/04/04 06:04:21;;;;;;;6.35;4.70;;;;;;;;;;6192075;23;20406;-84
2023/04/04 06:06:47;;;;;;;7.30;5.07;;;;;;;;;;6191264;23;20342;-84
2023/04/04 06:09:20;;;;;;;8.20;4.80;;;;;;;;;;6221290;23;20334;-84
2023/04/04 06:11:52;;;;;;;8.98;4.70;;;;;;;;;;6192403;23;20348;-85
2023/04/04 06:14:31;;;;;;;7.25;3.97;;;;;;;;;;6191988;23;20356;-84
2023/04/04 06:17:01;;;;;;;8.35;3.90;;;;;;;;;;6192153;23;20342;-85
2023/04/04 06:19:29;;;;;;;5.85;3.70;;;;;;;;;;6217265;23;20441;-85
2023/04/04 06:21:55;;;;;;;5.65;3.55;;;;;;;;;;6190390;23;20833;-85
2023/04/04 06:24:21;;;;;;;7.15;3.50;;;;;;;;;;6192023;23;20408;-84
2023/04/04 06:26:50;;;;;;;6.05;3.50;;;;;;;;;;6190346;23;20350;-85
2023/04/04 06:29:17;;;;;;;6.35;3.33;;;;;;;;;;6190418;23;20349;-85
2023/04/04 06:31:43;;;;;;;6.18;3.25;;;2.50;99.90;;;;;;6215687;23;20346;-84
2023/04/04 06:34:09;;;;;;;5.90;2.97;;;2.60;99.90;;;;;;6189447;23;20400;-85
2023/04/04 06:36:34;;;;;;;5.97;3.00;;;2.70;99.90;;;;;;6216579;23;20346;-84
2023/04/04 06:39:00;;;;;;;6.37;2.97;;;1.10;99.90;;;;;;6189817;23;20358;-84
2023/04/04 06:41:26;;;;;;;8.70;3.58;;;;;;;;;;6189598;23;20436;-85
2023/04/04 06:43:52;;;;;;;6.95;3.33;;;;;;;;;;6215719;23;20662;-85
2023/04/04 06:46:21;;;;;;;7.03;3.00;;;;;;;;;;6215790;23;20396;-85
2023/04/04 06:48:47;;;;;;;5.93;2.45;;;;;;;;;;6216784;23;20346;-84
2023/04/04 06:51:13;;;;;;;4.78;2.60;;;7.90;99.90;;;;;;6216752;23;20336;-86
2023/04/04 06:53:39;;;;;;;6.13;2.75;;;;;;;;;;6200626;23;20351;-83
2023/04/04 06:56:05;;;;;;;5.40;2.60;;;9.80;99.90;;;;;;6202520;23;20353;-83
2023/04/04 06:58:31;;;;;;;6.00;3.00;;;10.40;99.90;;;;;;6200806;23;20421;-84
2023/04/04 07:00:58;;;;;;;6.80;2.75;;;11.00;99.90;;;;;;6218908;23;20437;-84
2023/04/04 07:03:25;;;;;;;5.45;2.30;;;10.10;99.90;;;;;;6219107;23;20388;-85
2023/04/04 07:05:51;;;;;;;5.38;2.00;;;;;;;;;;6220100;23;20810;-83
2023/04/04 07:08:18;;;;;;;4.57;1.80;;;;;;;;;;6227928;23;20338;-82
2023/04/04 07:10:44;;;;;;;4.20;2.03;;;12.70;99.90;;;;;;6231610;23;20334;-83
2023/04/04 07:13:10;;;;;;;2.93;1.77;;;12.90;99.90;;;;;;6209895;23;20403;-82
2023/04/04 07:15:35;;;;;;;5.03;1.60;;;13.30;99.90;;;;;;6235472;23;20346;-83
2023/04/04 07:18:01;;;;;;;3.60;1.60;;;13.40;99.20;;;;;;6227862;23;20376;-83
2023/04/04 07:20:27;;;;;;;5.72;2.10;;;11.60;98.60;;;;;;6215528;23;20358;-84
2023/04/04 07:22:53;;;;;;;6.53;2.10;;;8.70;99.90;;;;;;6190709;23;20350;-83
2023/04/04 07:25:19;;;;;;;3.25;1.65;;;8.40;99.90;;;;;;6191355;23;20350;-84
2023/04/04 07:27:45;;;;;;;3.78;1.80;;;9.90;99.90;;;;;;6216357;23;20397;-84
2023/04/04 07:30:11;;;;;;;2.78;1.55;;;11.20;99.90;;;;;;6216030;23;20350;-84
2023/04/04 07:32:37;;;;;;;3.60;1.80;;;11.60;99.90;;;;;;6215572;23;20851;-83
2023/04/04 07:35:04;;;;;;;3.27;1.70;;;10.80;99.90;;;;;;6215691;23;20350;-83
2023/04/04 07:37:32;;;;;;;3.17;1.70;;;;;;;;;;6189320;23;20685;-83
2023/04/04 07:39:58;;;;;;;2.85;1.67;;;11.50;99.90;;;;;;6218521;23;20344;-83
2023/04/04 07:42:24;;;;;;;4.35;1.80;;;;;;;;;;6218930;23;20374;-84
2023/04/04 07:44:50;;;;;;;3.53;1.60;;;12.20;97.60;;;;;;6214646;23;20797;-84
2023/04/04 07:47:17;;;;;;;5.25;1.48;;;11.10;99.90;;;;;;6215481;23;20412;-84
2023/04/04 07:49:42;;;;;;;3.28;1.25;;;11.60;99.60;;;;;;6214311;23;20350;-84
2023/04/04 07:52:08;;;;;;;2.90;1.70;;;13.70;99.10;;;;;;6214431;23;20349;-84
2023/04/04 07:54:34;;;;;;;3.05;1.50;;;12.90;96.10;;;;;;6214398;23;20369;-85
2023/04/04 07:57:00;;;;;;;5.32;1.90;;;12.80;96.30;;;;;;6188048;23;20354;-84
2023/04/04 07:59:26;;;;;;;3.15;1.67;;;10.30;99.90;;;;;;6188008;23;20353;-84
2023/04/04 08:01:51;;;;;;;4.00;1.67;;;11.30;99.20;;;;;;6187531;23;20820;-83
2023/04/04 08:04:17;;;;;;;6.30;1.77;;;10.10;99.90;;;;;;6214778;23;20356;-84
2023/04/04 08:06:42;;;;;;;4.27;1.50;;;10.40;99.90;;;;;;6214498;23;20345;-84
2023/04/04 08:09:08;;;;;;;4.13;1.87;;;11.50;99.70;;;;;;6214238;23;20397;-83
2023/04/04 08:11:34;;;;;;;3.97;1.43;;;12.10;98.10;;;;;;6188408;23;20432;-84
2023/04/04 08:13:59;;;;;;;4.75;1.63;;;12.20;97.60;;;;;;6217303;23;20385;-84
2023/04/04 08:16:25;;;;;;;4.28;1.85;;;11.50;99.10;;;;;;6188047;23;20350;-84
2023/04/04 08:18:51;;;;;;;4.13;1.73;;;11.10;99.20;;;;;;6214238;23;20353;-84
2023/04/04 08:21:18;;;;;;;4.53;1.80;;;10.50;99.90;;;;;;6187966;23;20441;-84
2023/04/04 08:23:43;;;;;;;3.50;1.50;;;11.00;98.90;;;;;;6215183;23;20338;-85
2023/04/04 08:26:10;;;;;;;2.90;1.47;;;10.40;99.50;;;;;;6214926;23;20349;-84
2023/04/04 08:28:37;;;;;;;4.82;1.80;;;9.50;99.90;;;;;;6216228;23;20382;-82
2023/04/04 08:31:03;;;;;;;2.97;1.73;;;9.00;99.90;;;;;;6215030;23;20330;-84
2023/04/04 08:33:28;;;;;;;2.33;1.70;;;9.20;99.90;;;;;;6214698;23;20429;-84
2023/04/04 08:35:56;;;;;;;3.25;1.45;;;9.70;99.90;;;;;;6214788;23;20450;-83
2023/04/04 08:38:21;;;;;;;3.67;1.60;;;10.50;99.40;;;;;;6188247;23;20397;-83
2023/04/04 08:40:48;;;;;;;3.03;1.90;;;10.70;99.10;;;;;;6189260;23;20381;-83
2023/04/04 08:43:15;;;;;;;3.13;1.50;;;11.30;99.20;;;;;;6214464;23;20342;-83
2023/04/04 08:45:45;;;;;;;3.78;1.85;;;12.40;99.00;;;;;;6213803;23;20408;-83
2023/04/04 08:48:12;;;;;;;3.53;1.60;;;12.80;97.60;;;;;;6213616;23;20346;-84
2023/04/04 08:50:41;;;;;;;2.80;1.38;;;13.00;97.80;;;;;;6216163;23;20372;-83
2023/04/04 08:53:09;;;;;;;2.60;1.33;;;13.70;95.40;;;;;;6188831;23;20373;-82
2023/04/04 08:55:34;;;;;;;2.35;1.45;;;12.40;95.90;;;;;;6214105;23;20338;-83
2023/04/04 08:58:00;;;;;;;3.27;1.53;;;12.20;97.10;;;;;;6214406;23;20446;-83
2023/04/04 09:00:26;;;;;;;2.13;1.30;;;13.30;97.10;;;;;;6215126;23;20365;-83
2023/04/04 09:03:19;;;;;;;3.67;1.43;;;14.60;96.50;;;;;;6214804;23;20350;-84
2023/04/04 09:05:45;;;;;;;4.25;2.00;;;15.10;93.80;;;;;;6215084;23;20384;-83
2023/04/04 09:08:11;;;;;;;3.38;1.40;;;13.20;95.60;;;;;;6188094;23;20429;-82
2023/04/04 09:10:42;;;;;;;3.33;1.47;;;12.50;96.20;;;;;;6187152;23;20372;-84
2023/04/04 09:13:08;;;;;;;2.80;1.40;;;11.20;95.30;;;;;;6189454;23;20433;-82
2023/04/04 09:15:37;;;;;;;3.03;1.50;;;9.30;97.20;;;;;;6188193;23;20385;-82
2023/04/04 09:18:03;;;;;;;2.47;1.40;;;8.40;99.20;;;;;;6215230;23;20354;-83
2023/04/04 09:20:42;;;;;;;3.60;1.40;;;8.60;99.90;;;;;;6214071;23;20484;-84
2023/04/04 09:23:13;;;;;;;2.78;1.48;;;9.70;99.20;;;;;;6213498;23;20872;-81
2023/04/04 09:25:49;;;;;;;3.10;1.38;;;9.90;97.40;;;;;;6214032;23;20400;-85
2023/04/04 09:28:16;;;;;;;2.30;1.20;;;10.00;98.20;;;;;;6214865;23;20377;-81
2023/04/04 09:30:43;;;;;;;2.35;1.20;;;10.60;98.00;;;;;;6220341;23;20421;-82
2023/04/04 09:33:10;;;;;;;1.95;1.33;;;11.20;99.90;;;;;;6224814;23;20346;-83
2023/04/04 09:35:38;;;;;;;3.20;1.45;;;10.80;97.30;;;;;;6197128;23;20665;-82
2023/04/04 09:38:05;;;;;;;2.67;1.40;;;11.30;97.70;;;;;;6220820;23;20342;-83
2023/04/04 09:40:31;;;;;;;2.65;1.23;;;11.70;97.00;;;;;;6214928;23;20370;-85
2023/04/04 09:43:00;;;;;;;3.43;1.40;;;12.10;95.90;;;;;;6215675;23;20369;-84
2023/04/04 09:45:29;;;;;;;2.60;1.10;;;11.80;95.20;;;;;;6215577;23;20401;-85
2023/04/04 09:47:55;;;;;;;2.47;1.30;;;11.60;97.00;;;;;;6216621;23;20346;-84
2023/04/04 09:50:23;;;;;;;2.92;1.13;;;11.50;97.50;;;;;;6193163;23;20346;-85
2023/04/04 09:52:49;;;;;;;2.03;1.20;;;11.60;97.30;;;;;;6194852;23;20353;-85
2023/04/04 09:55:16;;;;;;;3.05;1.40;;;11.70;95.90;;;;;;6215807;23;20382;-84
2023/04/04 09:57:42;;;;;;;2.40;1.30;;;10.20;96.20;;;;;;6189775;23;20357;-84
2023/04/04 10:00:08;;;;;;;3.20;1.45;;;8.60;97.60;;;;;;6217064;23;20354;-83
2023/04/04 10:02:36;;;;;;;3.15;1.77;;;7.50;99.40;;;;;;6216687;23;20378;-83
2023/04/04 10:05:03;;;;;;;3.70;1.88;;;6.60;99.90;;;;;;6215185;23;20732;-84
2023/04/04 10:07:29;;;;;;;2.85;1.50;;;6.20;99.90;;;;;;6218973;23;20334;-84
2023/04/04 10:09:56;;;;;;;3.90;1.60;;;6.00;99.90;;;;;;6220037;23;20346;-84
2023/04/04 10:12:23;;;;;;;3.38;1.50;;;6.00;99.90;;;;;;6223959;23;20330;-84
2023/04/04 10:14:59;;;;;;;4.37;1.63;;;7.70;99.90;;;;;;6225152;23;20353;-83
2023/04/04 10:17:46;;;;;;;2.80;1.17;;;9.80;99.30;;;;;;6225739;23;20334;-82
2023/04/04 10:20:13;;;;;;;2.50;1.40;;;10.90;96.30;;;;;;6227570;23;20446;-83
2023/04/04 10:22:39;;;;;;;3.45;2.08;;;10.90;96.10;;;;;;6200393;23;20354;-83
2023/04/04 10:25:06;;;;;;;1.55;1.20;;;10.30;96.70;;;;;;6218445;23;20433;-83
2023/04/04 10:27:33;;;;;;;2.22;1.15;;;10.30;96.10;;;;;;6219146;23;20401;-82
2023/04/04 10:30:02;;;;;;;3.30;1.63;;;11.50;97.00;;;;;;6220336;23;20338;-83
2023/04/04 10:32:46;;;;;;;2.80;1.10;;;12.90;92.50;;;;;;6219262;23;20353;-84
2023/04/04 10:35:12;;;;;;;2.38;1.27;;;12.60;93.80;;;;;;6192562;23;20541;-83
2023/04/04 10:37:59;;;;;;;5.43;1.40;;;11.10;94.60;;;;;;6196076;23;20350;-80
2023/04/04 10:40:33;;;;;;;3.33;1.50;;;9.50;95.40;;;;;;6227230;23;20353;-84
2023/04/04 10:43:01;;;;;;;3.20;1.20;;;8.80;97.70;;;;;;6194772;23;20358;-83
2023/04/04 10:45:28;;;;;;;2.90;1.42;;;8.60;97.30;;;;;;6189358;23;20349;-84
2023/04/04 10:47:54;;;;;;;2.50;1.30;;;8.90;96.40;;;;;;6215014;23;20364;-83
2023/04/04 10:50:20;;;;;;;3.60;1.40;;;9.80;97.40;;;;;;6215260;23;20339;-82
2023/04/04 10:52:46;;;;;;;3.73;1.47;;;9.20;96.60;;;;;;6189548;23;20358;-82
2023/04/04 10:55:13;;;;;;;3.27;1.50;;;9.10;96.60;;;;;;6215787;23;20653;-81
2023/04/04 10:57:41;;;;;;;4.22;1.75;;;8.70;97.00;;;;;;6215583;23;20330;-83
2023/04/04 11:00:13;;;;;;;2.63;1.20;;;8.50;97.30;;;;;;6188821;23;20361;-83
2023/04/04 11:02:54;;;;;;;3.30;1.52;;;8.60;96.90;;;;;;6212617;23;20891;-83
2023/04/04 11:05:33;;;;;;;2.60;1.15;;;8.50;96.60;;;;;;6188586;23;20358;-83
2023/04/04 11:08:01;;;;;;;3.30;1.38;;;8.90;97.20;;;;;;6214769;23;20400;-84
2023/04/04 11:10:35;;;;;;;2.80;1.45;;;9.50;98.00;;;;;;6188450;23;20352;-82
2023/04/04 11:13:10;;;;;;;2.95;1.35;;;10.00;95.90;;;;;;6189948;23;20358;-84
2023/04/04 11:16:06;;;;;;;3.25;1.30;;;9.70;96.20;;;;;;6217509;23;20421;-83
2023/04/04 11:18:31;;;;;;;5.43;1.45;;;9.50;96.30;;;;;;6216949;23;20425;-83
2023/04/04 11:21:05;;;;;;;2.67;1.10;;;9.40;96.60;;;;;;6219357;23;20365;-83
2023/04/04 11:23:46;;;;;;;3.10;1.35;;;9.50;96.20;;;;;;6191636;23;20377;-84
2023/04/04 11:26:12;;;;;;;2.53;1.20;;;9.20;96.20;;;;;;6216716;23;20350;-83
2023/04/04 11:28:40;;;;;;;2.10;1.35;;;8.60;96.10;;;;;;6192531;23;20365;-83
2023/04/04 11:31:18;;;;;;;5.28;1.70;;;8.50;97.00;;;;;;6189453;23;20349;-84
2023/04/04 11:33:56;;;;;;;2.92;1.40;;;8.00;96.70;;;;;;6215960;23;20416;-83
2023/04/04 11:36:37;;;;;;;2.30;1.55;;;7.80;96.90;;;;;;6189825;23;20429;-84
2023/04/04 11:39:21;;;;;;;2.17;1.40;;;8.30;98.70;;;;;;6216549;23;20350;-83
2023/04/04 11:42:07;;;;;;;3.07;1.40;;;8.70;96.30;;;;;;6215627;23;20388;-83
2023/04/04 11:44:38;;;;;;;3.53;1.45;;;8.50;97.50;;;;;;6215643;23;20800;-83
2023/04/04 11:47:10;;;;;;;2.40;1.30;;;8.20;95.80;;;;;;6215897;23;20392;-84
2023/04/04 11:49:38;;;;;;;2.05;1.17;;;8.10;96.10;;;;;;6214832;23;20349;-84
2023/04/04 11:52:17;;;;;;;2.80;1.23;;;8.20;97.10;;;;;;6215773;23;20350;-84
2023/04/04 11:54:46;;;;;;;2.45;1.35;;;8.40;96.40;;;;;;6215469;23;20354;-83
2023/04/04 11:57:17;;;;;;;2.90;1.20;;;8.60;96.80;;;;;;6191907;23;20361;-83
2023/04/04 11:59:48;;;;;;;2.40;1.30;;;9.20;97.30;;;;;;6191030;23;20365;-84
2023/04/04 12:02:32;;;;;;;2.75;1.23;;;9.60;96.20;;;;;;6217688;23;20373;-85
2023/04/04 12:04:59;;;;;;;2.28;1.30;;;8.90;96.00;;;;;;6218275;23;20412;-84
2023/04/04 12:07:25;;;;;;;2.38;1.30;;;8.30;97.20;;;;;;6218614;23;20353;-84
2023/04/04 12:09:51;;;;;;;3.10;1.30;;;8.00;96.90;;;;;;6194328;23;20377;-83
2023/04/04 12:12:29;;;;;;;3.63;1.42;;;8.10;98.00;;;;;;6220718;23;20370;-82
2023/04/04 12:14:59;;;;;;;2.83;1.40;;;8.20;97.30;;;;;;6172218;23;20894;-83
2023/04/04 12:17:28;;;;;;;2.58;1.30;;;8.40;97.40;;;;;;6188412;23;20717;-84
2023/04/04 12:19:54;;;;;;;2.25;1.40;;;8.50;97.00;;;;;;6214102;23;20385;-83
2023/04/04 12:22:19;;;;;;;2.47;1.30;;;8.60;97.20;;;;;;6214864;23;20349;-84
2023/04/04 12:24:45;;;;;;;2.83;1.20;;;8.40;96.30;;;;;;6189440;23;20678;-84
2023/04/04 12:27:11;;;;;;;2.80;1.20;;;8.40;96.50;;;;;;6189265;23;20349;-84
2023/04/04 12:29:37;;;;;;;3.55;1.35;;;8.20;96.70;;;;;;6221178;23;20342;-84
2023/04/04 12:32:04;;;;;;;3.42;1.55;;;8.10;96.60;;;;;;6214747;23;20760;-84
2023/04/04 12:34:32;;;;;;;2.25;1.40;;;8.00;97.10;;;;;;6214225;23;20373;-84
2023/04/04 12:36:59;;;;;;;4.30;1.40;;;7.80;96.40;;;;;;6214974;23;20349;-84
2023/04/04 12:39:27;;;;;;;3.90;1.60;;;8.30;98.40;;;;;;6214789;23;20365;-84
2023/04/04 12:41:57;;;;;;;3.42;1.40;;;8.40;97.70;;;;;;6214592;23;20736;-85
2023/04/04 12:44:34;;;;;;;2.60;1.52;;;8.40;97.20;;;;;;6187634;23;20457;-84
2023/04/04 12:47:05;;;;;;;3.45;1.67;;;8.50;97.50;;;;;;6188526;23;20825;-84
2023/04/04 12:49:43;;;;;;;2.50;1.57;;;8.30;97.30;;;;;;6187667;23;20738;-84
2023/04/04 12:52:30;;;;;;;2.70;1.70;;;8.20;97.30;;;;;;6213614;23;20357;-84
2023/04/04 12:54:59;;;;;;;3.58;1.40;;;8.40;98.20;;;;;;6214391;23;20408;-84
2023/04/04 12:57:26;;;;;;;3.50;1.42;;;8.60;97.00;;;;;;6215070;23;20697;-84
2023/04/04 12:59:54;;;;;;;2.55;1.40;;;8.50;97.10;;;;;;6215866;23;20923;-83
2023/04/04 13:02:22;;;;;;;3.22;1.40;;;8.00;95.20;;;;;;6187595;23;20676;-85
2023/04/04 13:04:51;;;;;;;3.43;1.57;;;8.00;97.50;;;;;;6215386;23;20348;-84
2023/04/04 13:07:33;;;;;;;2.40;1.33;;;8.30;96.40;;;;;;6216595;23;20349;-85
2023/04/04 13:10:04;;;;;;;1.90;1.20;;;8.70;95.70;;;;;;6216551;23;20342;-84
2023/04/04 13:12:52;;;;;;;3.53;1.50;;;9.00;95.70;;;;;;6189701;23;20817;-84
2023/04/04 13:15:18;;;;;;;2.65;1.40;;;9.50;96.40;;;;;;6217524;23;20380;-84